This is the latest recevied weather packets stored in our database for station/object N5KJT. If no packets are shown the sender has not sent any weather packets the latest 10 day(s).
| Time | Temp. | Humidity | Pressure | Rain* | Wind** | Luminosity | Snow |
|---|---|---|---|---|---|---|---|
| 1787926815 | 17.22° C | 75% | 1030.3 hPa | 0 mm | - | 357 W/m² | - |
| 1787926530 | 16.67° C | 76% | 1030.3 hPa | 0 mm | - | 333 W/m² | - |
| 1787926215 | 16.67° C | 79% | 1030.1 hPa | 0 mm | - | 308 W/m² | - |
| 1787925915 | 16.11° C | 81% | 1030.1 hPa | 0 mm | - | 284 W/m² | - |
| 1787925615 | 15.56° C | 81% | 1030.1 hPa | 0 mm | - | 257 W/m² | - |
| 1787925315 | 15.56° C | 83% | 1030 hPa | 0 mm | - | 230 W/m² | - |
| 1787925015 | 15° C | 85% | 1030.1 hPa | 0 mm | - | 202 W/m² | - |
| 1787924715 | 14.44° C | 86% | 1030 hPa | 0 mm | - | 167 W/m² | - |
| 1787924415 | 13.89° C | 87% | 1029.9 hPa | 0 mm | - | 135 W/m² | - |
| 1787924115 | 13.89° C | 89% | 1029.9 hPa | 0 mm | - | 119 W/m² | - |
| 1787923815 | 13.33° C | 89% | 1029.8 hPa | 0 mm | - | 108 W/m² | - |
| 1787923515 | 12.78° C | 89% | 1029.8 hPa | 0 mm | - | 98 W/m² | - |
| 1787923215 | 12.78° C | 89% | 1029.9 hPa | 0 mm | - | 88 W/m² | - |
| 1787922915 | 12.78° C | 89% | 1029.8 hPa | 0 mm | - | 76 W/m² | - |
| 1787922615 | 12.22° C | 88% | 1029.7 hPa | 0 mm | - | 61 W/m² | - |
| 1787922315 | 12.22° C | 88% | 1029.6 hPa | 0 mm | - | 46 W/m² | - |
| 1787922015 | 12.22° C | 88% | 1029.7 hPa | 0 mm | - | 33 W/m² | - |
| 1787921715 | 12.22° C | 88% | 1029.7 hPa | 0 mm | - | 21 W/m² | - |
| 1787921415 | 12.22° C | 87% | 1029.6 hPa | 0 mm | - | 16 W/m² | - |
| 1787921115 | 12.22° C | 87% | 1029.6 hPa | 0 mm | - | 12 W/m² | - |
| 1787920815 | 12.22° C | 87% | 1029.5 hPa | 0 mm | - | 8 W/m² | - |
| 1787920517 | 12.78° C | 87% | 1029.3 hPa | 0 mm | - | 2 W/m² | - |
| 1787920217 | 12.78° C | 87% | 1029.2 hPa | 0 mm | - | 0 W/m² | - |
| 1787919917 | 12.78° C | 87% | 1029.1 hPa | 0 mm | - | 0 W/m² | - |
| 1787919617 | 12.78° C | 87% | 1029 hPa | 0 mm | - | 0 W/m² | - |
* Rain latest hour (hover to see other rain measurements)
** Current wind speed in m/s (hover to see current wind gust speed)